createdAt,value
2023-05-05T00:02:06.326Z,0.19
2023-05-05T00:04:34.524Z,0.23
2023-05-05T00:07:03.029Z,0.28
2023-05-05T00:09:31.273Z,0.26
2023-05-05T00:12:00.858Z,0.29
2023-05-05T00:14:29.521Z,0.32
2023-05-05T00:16:57.775Z,0.33
2023-05-05T00:19:26.134Z,0.34
2023-05-05T00:21:54.356Z,0.39
2023-05-05T00:24:22.702Z,0.41
2023-05-05T00:26:51.157Z,0.42
2023-05-05T00:29:21.075Z,0.26
2023-05-05T00:31:51.780Z,0.44
2023-05-05T00:34:21.494Z,0.45
2023-05-05T00:36:49.767Z,0.48
2023-05-05T00:39:18.016Z,0.50
2023-05-05T00:41:46.402Z,0.48
2023-05-05T00:44:14.862Z,0.52
2023-05-05T00:46:45.033Z,0.58
2023-05-05T00:49:13.514Z,0.60
2023-05-05T00:51:41.876Z,0.58
2023-05-05T00:54:10.219Z,0.55
2023-05-05T00:56:38.451Z,0.51
2023-05-05T00:59:06.797Z,0.59
2023-05-05T01:01:35.126Z,0.58
2023-05-05T01:04:05.187Z,0.60
2023-05-05T01:06:48.732Z,0.59
2023-05-05T01:09:29.736Z,0.58
2023-05-05T01:12:06.505Z,0.58
2023-05-05T01:14:40.892Z,0.55
2023-05-05T01:17:17.286Z,0.57
2023-05-05T01:20:03.997Z,0.56
2023-05-05T01:22:39.491Z,0.56
2023-05-05T01:25:36.692Z,0.55
2023-05-05T01:28:20.632Z,0.58
2023-05-05T01:31:03.936Z,0.55
2023-05-05T01:33:37.953Z,0.55
2023-05-05T01:36:11.763Z,0.53
2023-05-05T01:38:43.376Z,0.57
2023-05-05T01:41:16.440Z,0.56
2023-05-05T01:43:48.165Z,0.58
2023-05-05T01:46:19.114Z,0.59
2023-05-05T01:48:50.251Z,0.61
2023-05-05T01:51:21.631Z,0.59
2023-05-05T01:53:53.169Z,0.59
2023-05-05T01:56:24.127Z,0.60
2023-05-05T01:58:54.065Z,0.57
2023-05-05T02:01:25.216Z,0.55
2023-05-05T02:03:56.987Z,0.56
2023-05-05T02:06:28.292Z,0.53
2023-05-05T02:08:59.498Z,0.53
2023-05-05T02:11:29.610Z,0.55
2023-05-05T02:14:00.050Z,0.56
2023-05-05T02:16:31.195Z,0.55
2023-05-05T02:19:05.069Z,0.52
2023-05-05T02:21:33.757Z,0.52
2023-05-05T02:24:02.356Z,0.52
2023-05-05T02:26:34.972Z,0.51
2023-05-05T02:29:07.357Z,0.55
2023-05-05T02:31:40.884Z,0.53
2023-05-05T02:34:12.382Z,0.54
2023-05-05T02:36:43.552Z,0.56
2023-05-05T02:39:15.532Z,0.56
2023-05-05T02:41:48.539Z,0.51
2023-05-05T02:44:25.954Z,0.55
2023-05-05T02:46:55.449Z,0.52
2023-05-05T02:49:26.248Z,0.53
2023-05-05T02:51:59.582Z,0.51
2023-05-05T02:54:32.843Z,0.52
2023-05-05T02:57:02.978Z,0.50
2023-05-05T02:59:47.423Z,0.50
2023-05-05T03:02:23.243Z,0.48
2023-05-05T03:04:57.688Z,0.51
2023-05-05T03:07:32.384Z,0.51
2023-05-05T03:10:07.520Z,0.49
2023-05-05T03:12:47.791Z,0.49
2023-05-05T03:15:26.437Z,0.48
2023-05-05T03:17:57.719Z,0.52
2023-05-05T03:20:28.722Z,0.54
2023-05-05T03:22:59.268Z,0.54
2023-05-05T03:25:42.848Z,0.52
2023-05-05T03:28:12.743Z,0.55
2023-05-05T03:30:41.787Z,0.54
2023-05-05T03:33:11.859Z,0.56
2023-05-05T03:35:44.182Z,0.57
2023-05-05T03:38:14.506Z,0.63
2023-05-05T03:40:44.777Z,0.64
2023-05-05T03:43:17.614Z,0.66
2023-05-05T03:45:46.031Z,0.64
2023-05-05T03:48:14.486Z,0.65
2023-05-05T03:50:47.345Z,0.63
2023-05-05T03:53:16.936Z,0.70
2023-05-05T03:55:45.708Z,0.76
2023-05-05T03:58:13.978Z,0.81
2023-05-05T04:00:42.184Z,0.86
2023-05-05T04:03:11.636Z,0.90
2023-05-05T04:05:40.228Z,0.88
2023-05-05T04:08:10.336Z,0.81
2023-05-05T04:10:38.498Z,0.88
2023-05-05T04:13:06.867Z,0.83
2023-05-05T04:15:35.163Z,0.78
2023-05-05T04:18:03.355Z,0.73
2023-05-05T04:20:31.647Z,0.68
2023-05-05T04:22:59.972Z,0.62
2023-05-05T04:25:29.497Z,0.62
2023-05-05T04:27:57.928Z,0.65
2023-05-05T04:30:26.771Z,0.69
2023-05-05T04:32:55.184Z,0.68
2023-05-05T04:35:23.605Z,0.68
2023-05-05T04:37:54.785Z,0.64
2023-05-05T04:40:23.218Z,0.61
2023-05-05T04:42:53.295Z,0.63
2023-05-05T04:45:21.532Z,0.60
2023-05-05T04:47:49.992Z,0.60
2023-05-05T04:50:18.509Z,0.60
2023-05-05T04:52:46.744Z,0.59
2023-05-05T04:55:15.130Z,0.58
2023-05-05T04:57:43.235Z,0.60
2023-05-05T05:00:14.088Z,0.65
2023-05-05T05:02:42.374Z,0.67
2023-05-05T05:05:11.225Z,0.72
2023-05-05T05:07:39.446Z,0.78
2023-05-05T05:10:08.681Z,0.82
2023-05-05T05:12:37.167Z,0.86
2023-05-05T05:15:06.284Z,0.90
2023-05-05T05:17:35.997Z,0.96
2023-05-05T05:20:05.069Z,1.00
2023-05-05T05:22:34.952Z,0.99
2023-05-05T05:25:04.082Z,1.05
2023-05-05T05:27:32.675Z,1.10
2023-05-05T05:30:00.900Z,1.19
2023-05-05T05:32:31.131Z,1.23
2023-05-05T05:35:00.781Z,1.32
2023-05-05T05:37:30.108Z,1.39
2023-05-05T05:39:59.207Z,1.42
2023-05-05T05:42:28.700Z,1.25
2023-05-05T05:44:58.459Z,1.11
2023-05-05T05:47:28.179Z,1.03
2023-05-05T05:49:57.595Z,1.09
2023-05-05T05:52:27.152Z,1.02
2023-05-05T05:54:55.851Z,0.77
2023-05-05T05:57:24.713Z,0.64
2023-05-05T05:59:53.947Z,0.53
2023-05-05T06:02:23.166Z,0.48
2023-05-05T06:04:51.753Z,0.38
2023-05-05T06:07:20.723Z,0.19
2023-05-05T06:09:50.511Z,0.19
2023-05-05T06:12:18.677Z,0.04
2023-05-05T06:14:46.888Z,-0.02
2023-05-05T06:17:15.359Z,-0.12
2023-05-05T06:19:43.968Z,-0.13
2023-05-05T06:22:12.197Z,-0.11
2023-05-05T06:24:40.519Z,-0.11
2023-05-05T06:27:10.207Z,-0.13
2023-05-05T06:29:38.316Z,-0.05
2023-05-05T06:32:08.425Z,0.04
2023-05-05T06:34:36.561Z,0.17
2023-05-05T06:37:04.672Z,0.28
2023-05-05T06:39:32.860Z,0.37
2023-05-05T06:42:01.037Z,0.49
2023-05-05T06:44:31.161Z,0.58
2023-05-05T06:46:59.507Z,0.72
2023-05-05T06:49:27.707Z,0.88
2023-05-05T06:51:56.586Z,1.00
2023-05-05T06:54:24.781Z,1.11
2023-05-05T06:56:52.894Z,1.24
2023-05-05T06:59:21.158Z,1.35
2023-05-05T07:01:51.026Z,1.49
2023-05-05T07:04:19.200Z,1.59
2023-05-05T07:06:47.391Z,1.66
2023-05-05T07:09:17.094Z,1.65
2023-05-05T07:14:14.084Z,1.59
2023-05-05T07:16:42.250Z,1.69
2023-05-05T07:19:11.763Z,1.75
2023-05-05T07:21:39.931Z,1.81
2023-05-05T07:24:08.549Z,1.95
2023-05-05T07:26:36.926Z,2.01
2023-05-05T07:29:07.178Z,1.97
2023-05-05T07:31:35.501Z,2.02
2023-05-05T07:34:03.671Z,2.12
2023-05-05T07:36:33.315Z,2.17
2023-05-05T07:39:01.643Z,2.22
2023-05-05T07:41:29.819Z,2.25
2023-05-05T07:43:57.955Z,2.25
2023-05-05T07:46:26.200Z,2.12
2023-05-05T07:48:54.309Z,2.07
2023-05-05T07:51:22.660Z,2.06
2023-05-05T07:53:52.304Z,2.02
2023-05-05T07:56:21.786Z,2.00
2023-05-05T07:58:50.037Z,2.03
2023-05-05T08:01:18.193Z,2.10
2023-05-05T08:03:46.410Z,2.26
2023-05-05T08:06:16.757Z,2.50
2023-05-05T08:08:44.921Z,2.73
2023-05-05T08:11:14.454Z,2.76
2023-05-05T08:13:44.198Z,2.76
2023-05-05T08:16:12.612Z,2.96
2023-05-05T08:18:40.815Z,3.12
2023-05-05T08:21:10.032Z,3.15
2023-05-05T08:23:39.296Z,3.06
2023-05-05T08:26:09.206Z,3.07
2023-05-05T08:28:38.761Z,3.20
2023-05-05T08:31:07.769Z,3.30
2023-05-05T08:33:36.058Z,3.43
2023-05-05T08:36:05.453Z,3.64
2023-05-05T08:38:33.706Z,3.65
2023-05-05T08:41:02.063Z,3.71
2023-05-05T08:43:30.357Z,3.79
2023-05-05T08:46:00.812Z,3.64
2023-05-05T08:48:31.018Z,3.32
2023-05-05T08:51:02.601Z,3.29
2023-05-05T08:53:41.520Z,3.23
2023-05-05T08:56:11.568Z,3.21
2023-05-05T08:58:41.960Z,3.02
2023-05-05T09:01:13.522Z,2.94
2023-05-05T09:03:42.385Z,2.92
2023-05-05T09:06:11.292Z,2.92
2023-05-05T09:08:40.086Z,3.07
2023-05-05T09:11:08.393Z,3.28
2023-05-05T09:13:36.880Z,3.31
2023-05-05T09:16:05.233Z,3.29
2023-05-05T09:18:37.961Z,3.36
2023-05-05T09:21:20.674Z,3.38
2023-05-05T09:24:09.054Z,3.46
2023-05-05T09:26:39.343Z,3.58
2023-05-05T09:29:07.664Z,3.57
2023-05-05T09:31:37.502Z,3.62
2023-05-05T09:34:17.198Z,3.78
2023-05-05T09:36:48.281Z,3.90
2023-05-05T09:39:19.019Z,3.97
2023-05-05T09:41:47.582Z,3.92
2023-05-05T09:44:17.083Z,4.06
2023-05-05T09:46:52.880Z,4.11
2023-05-05T09:49:25.636Z,4.11
2023-05-05T09:51:55.516Z,4.04
2023-05-05T09:54:25.433Z,4.03
2023-05-05T09:56:54.217Z,4.00
2023-05-05T09:59:23.215Z,3.89
2023-05-05T10:01:52.230Z,3.84
2023-05-05T10:04:26.326Z,3.84
2023-05-05T10:06:56.677Z,3.89
2023-05-05T10:09:25.608Z,4.03
2023-05-05T10:11:54.630Z,4.30
2023-05-05T10:14:25.357Z,4.24
2023-05-05T10:16:55.073Z,4.27
2023-05-05T10:19:25.612Z,4.23
2023-05-05T10:21:55.532Z,4.26
2023-05-05T10:24:35.817Z,4.35
2023-05-05T10:27:12.802Z,4.25
2023-05-05T10:29:47.198Z,4.17
2023-05-05T10:32:51.435Z,4.32
2023-05-05T10:35:17.686Z,4.44
2023-05-05T10:37:46.731Z,4.49
2023-05-05T10:40:15.870Z,4.40
2023-05-05T10:42:44.880Z,4.35
2023-05-05T10:45:13.150Z,4.23
2023-05-05T10:47:41.756Z,3.95
2023-05-05T10:50:17.541Z,3.88
2023-05-05T10:52:57.086Z,3.94
2023-05-05T10:55:35.019Z,4.12
2023-05-05T10:58:03.329Z,4.31
2023-05-05T11:00:51.381Z,4.50
2023-05-05T11:03:24.353Z,4.47
2023-05-05T11:06:13.761Z,4.68
2023-05-05T11:08:43.566Z,5.13
2023-05-05T11:11:13.141Z,5.52
2023-05-05T11:13:42.094Z,5.87
2023-05-05T11:16:45.548Z,5.95
2023-05-05T11:19:49.027Z,5.83
2023-05-05T11:22:18.794Z,5.51
2023-05-05T11:24:47.356Z,5.57
2023-05-05T11:27:16.068Z,5.67
2023-05-05T11:30:07.158Z,5.16
2023-05-05T11:32:36.388Z,4.88
2023-05-05T11:35:06.264Z,4.98
2023-05-05T11:37:38.393Z,5.31
2023-05-05T11:40:17.973Z,5.26
2023-05-05T11:42:46.497Z,4.93
2023-05-05T11:45:22.875Z,4.37
2023-05-05T11:47:51.531Z,4.15
2023-05-05T11:50:23.084Z,3.94
2023-05-05T11:52:52.865Z,3.69
2023-05-05T11:55:23.259Z,3.54
2023-05-05T11:57:51.660Z,3.39
2023-05-05T12:00:20.566Z,3.00
2023-05-05T12:02:57.799Z,2.78
2023-05-05T12:05:26.462Z,2.96
2023-05-05T12:07:59.682Z,3.29
2023-05-05T12:10:28.894Z,3.21
2023-05-05T12:12:57.294Z,3.08
2023-05-05T12:15:34.334Z,3.12
2023-05-05T12:18:03.397Z,3.42
2023-05-05T12:20:33.695Z,3.60
2023-05-05T12:23:04.765Z,3.93
2023-05-05T12:25:38.093Z,4.25
2023-05-05T12:28:08.291Z,4.48
2023-05-05T12:30:36.881Z,4.69
2023-05-05T12:33:06.322Z,4.76
2023-05-05T12:35:35.070Z,4.96
2023-05-05T12:38:05.847Z,5.43
2023-05-05T12:40:53.003Z,5.88
2023-05-05T12:43:38.813Z,6.15
2023-05-05T12:46:09.402Z,6.38
2023-05-05T12:48:39.162Z,6.46
2023-05-05T12:51:16.187Z,6.55
2023-05-05T12:53:46.605Z,6.59
2023-05-05T12:56:31.210Z,6.74
2023-05-05T12:58:59.954Z,7.05
2023-05-05T13:01:28.459Z,6.93
2023-05-05T13:04:21.046Z,6.59
2023-05-05T13:06:50.889Z,6.74
2023-05-05T13:09:30.397Z,6.81
2023-05-05T13:11:58.957Z,6.90
2023-05-05T13:14:27.360Z,6.63
2023-05-05T13:16:55.852Z,6.51
2023-05-05T13:19:24.984Z,6.25
2023-05-05T13:21:53.311Z,5.98
2023-05-05T13:24:28.632Z,6.01
2023-05-05T13:27:01.144Z,6.42
2023-05-05T13:29:31.586Z,6.45
2023-05-05T13:32:00.664Z,6.60
2023-05-05T13:34:28.930Z,6.71
2023-05-05T13:36:57.256Z,6.29
2023-05-05T13:39:25.672Z,6.12
2023-05-05T13:41:54.590Z,5.78
2023-05-05T13:44:24.288Z,5.35
2023-05-05T13:46:52.655Z,5.05
2023-05-05T13:49:21.113Z,4.95
2023-05-05T13:51:49.537Z,4.67
2023-05-05T13:54:17.768Z,4.53
2023-05-05T13:56:46.656Z,4.43
2023-05-05T13:59:15.068Z,4.50
2023-05-05T14:01:44.820Z,4.36
2023-05-05T14:04:13.184Z,4.22
2023-05-05T14:06:41.606Z,4.14
2023-05-05T14:09:09.850Z,4.06
2023-05-05T14:11:38.118Z,3.89
2023-05-05T14:14:07.017Z,3.84
2023-05-05T14:16:35.453Z,3.62
2023-05-05T14:19:05.445Z,3.37
2023-05-05T14:21:33.865Z,3.28
2023-05-05T14:24:02.115Z,3.24
2023-05-05T14:26:30.597Z,3.36
2023-05-05T14:28:58.935Z,3.40
2023-05-05T14:31:27.428Z,3.37
2023-05-05T14:33:55.713Z,3.40
2023-05-05T14:36:25.462Z,3.31
2023-05-05T14:38:53.714Z,3.20
2023-05-05T14:41:22.021Z,3.13
2023-05-05T14:43:50.346Z,3.08
2023-05-05T14:46:18.991Z,3.08
2023-05-05T14:48:48.404Z,3.10
2023-05-05T14:51:16.918Z,3.18
2023-05-05T14:53:46.621Z,3.22
2023-05-05T14:56:15.043Z,3.54
2023-05-05T14:58:43.387Z,3.86
2023-05-05T15:01:11.699Z,4.06
2023-05-05T15:03:40.010Z,4.03
2023-05-05T15:06:09.440Z,3.79
2023-05-05T15:08:39.045Z,3.59
2023-05-05T15:11:08.842Z,3.51
2023-05-05T15:13:38.650Z,3.52
2023-05-05T15:16:07.743Z,3.53
2023-05-05T15:18:36.308Z,3.56
2023-05-05T15:21:04.800Z,3.56
2023-05-05T15:23:33.283Z,3.61
2023-05-05T15:26:01.832Z,3.60
2023-05-05T15:28:31.610Z,3.59
2023-05-05T15:31:01.856Z,3.64
2023-05-05T15:33:31.551Z,3.72
2023-05-05T15:35:59.758Z,3.80
2023-05-05T15:38:29.072Z,3.83
2023-05-05T15:40:57.538Z,3.89
2023-05-05T15:43:25.790Z,3.98
2023-05-05T15:45:56.380Z,4.00
2023-05-05T15:48:24.827Z,3.95
2023-05-05T15:50:52.993Z,3.96
2023-05-05T15:53:21.558Z,3.87
2023-05-05T15:55:49.799Z,3.75
2023-05-05T15:58:18.068Z,3.69
2023-05-05T16:00:46.356Z,3.69
2023-05-05T16:03:16.249Z,3.64
2023-05-05T16:05:44.468Z,3.63
2023-05-05T16:08:12.738Z,3.66
2023-05-05T16:10:41.330Z,3.70
2023-05-05T16:13:09.692Z,3.72
2023-05-05T16:15:37.933Z,3.67
2023-05-05T16:18:06.436Z,3.65
2023-05-05T16:20:36.263Z,3.61
2023-05-05T16:23:04.544Z,3.59
2023-05-05T16:25:32.906Z,3.50
2023-05-05T16:28:01.772Z,3.53
2023-05-05T16:30:30.358Z,3.50
2023-05-05T16:32:58.685Z,3.42
2023-05-05T16:35:26.938Z,3.37
2023-05-05T16:37:56.576Z,3.30
2023-05-05T16:40:25.148Z,3.26
2023-05-05T16:42:53.321Z,3.22
2023-05-05T16:45:21.499Z,3.20
2023-05-05T16:47:49.961Z,3.22
2023-05-05T16:50:18.458Z,3.22
2023-05-05T16:52:46.690Z,3.25
2023-05-05T16:55:16.861Z,3.25
2023-05-05T16:57:45.170Z,3.27
2023-05-05T17:00:14.595Z,3.28
2023-05-05T17:02:42.942Z,3.25
2023-05-05T17:05:11.441Z,3.19
2023-05-05T17:07:39.989Z,3.19
2023-05-05T17:10:09.687Z,3.17
2023-05-05T17:12:39.465Z,3.18
2023-05-05T17:15:09.448Z,3.16
2023-05-05T17:17:37.982Z,3.16
2023-05-05T17:20:07.684Z,3.15
2023-05-05T17:22:36.348Z,3.15
2023-05-05T17:25:05.162Z,3.15
2023-05-05T17:27:33.694Z,3.15
2023-05-05T17:30:03.386Z,3.17
2023-05-05T17:32:33.120Z,3.21
2023-05-05T17:35:01.423Z,3.22
2023-05-05T17:37:29.907Z,3.20
2023-05-05T17:39:58.136Z,3.18
2023-05-05T17:42:27.166Z,3.18
2023-05-05T17:44:55.438Z,3.19
2023-05-05T17:47:25.134Z,3.20
2023-05-05T17:49:55.243Z,3.22
2023-05-05T17:52:24.188Z,3.19
2023-05-05T17:54:53.046Z,3.20
2023-05-05T17:57:22.850Z,3.19
2023-05-05T17:59:53.514Z,3.15
2023-05-05T18:02:22.030Z,3.01
2023-05-05T18:04:51.742Z,2.94
2023-05-05T18:07:20.484Z,2.87
2023-05-05T18:09:48.714Z,2.82
2023-05-05T18:12:17.532Z,2.88
2023-05-05T18:14:46.220Z,2.90
2023-05-05T18:17:14.530Z,2.93
2023-05-05T18:19:46.213Z,2.91
2023-05-05T18:22:17.656Z,2.81
2023-05-05T18:24:46.288Z,2.89
2023-05-05T18:27:14.638Z,2.72
2023-05-05T18:29:42.942Z,2.59
2023-05-05T18:32:11.172Z,2.47
2023-05-05T18:34:39.431Z,2.25
2023-05-05T18:37:07.778Z,2.14
2023-05-05T18:39:38.157Z,2.19
2023-05-05T18:42:07.914Z,2.12
2023-05-05T18:44:36.230Z,2.19
2023-05-05T18:47:04.639Z,2.23
2023-05-05T18:49:32.936Z,2.27
2023-05-05T18:52:01.171Z,2.28
2023-05-05T18:54:29.709Z,2.25
2023-05-05T18:57:00.008Z,2.25
2023-05-05T18:59:28.325Z,2.25
2023-05-05T19:01:56.719Z,2.27
2023-05-05T19:04:31.400Z,2.29
2023-05-05T19:07:00.473Z,2.28
2023-05-05T19:09:28.860Z,2.31
2023-05-05T19:11:57.350Z,2.33
2023-05-05T19:14:27.377Z,2.33
2023-05-05T19:16:56.269Z,2.32
2023-05-05T19:19:24.748Z,2.31
2023-05-05T19:21:54.218Z,2.30
2023-05-05T19:24:22.404Z,2.31
2023-05-05T19:26:50.650Z,2.31
2023-05-05T19:29:19.145Z,2.25
2023-05-05T19:31:48.822Z,2.25
2023-05-05T19:34:17.112Z,2.25
2023-05-05T19:36:45.371Z,2.23
2023-05-05T19:39:15.646Z,2.18
2023-05-05T19:41:44.163Z,2.15
2023-05-05T19:44:12.425Z,2.14
2023-05-05T19:46:40.922Z,2.11
2023-05-05T19:49:10.686Z,1.98
2023-05-05T19:51:39.048Z,2.05
2023-05-05T19:54:07.282Z,2.01
2023-05-05T19:56:35.592Z,1.98
2023-05-05T19:59:06.309Z,1.94
2023-05-05T20:01:36.061Z,1.93
2023-05-05T20:04:04.849Z,1.90
2023-05-05T20:06:35.808Z,1.84
2023-05-05T20:09:04.602Z,1.84
2023-05-05T20:11:33.026Z,1.81
2023-05-05T20:14:01.451Z,1.79
2023-05-05T20:16:29.958Z,1.70
2023-05-05T20:18:58.300Z,1.73
2023-05-05T20:21:27.288Z,1.71
2023-05-05T20:23:56.894Z,1.69
2023-05-05T20:26:25.816Z,1.67
2023-05-05T20:28:54.069Z,1.65
2023-05-05T20:31:22.280Z,1.62
2023-05-05T20:33:50.943Z,1.62
2023-05-05T20:36:19.675Z,1.61
2023-05-05T20:38:47.918Z,1.60
2023-05-05T20:41:17.544Z,1.61
2023-05-05T20:43:46.038Z,1.60
2023-05-05T20:46:14.393Z,1.58
2023-05-05T20:48:43.147Z,1.62
2023-05-05T20:51:11.758Z,1.58
2023-05-05T20:53:39.986Z,1.59
2023-05-05T20:56:09.126Z,1.54
2023-05-05T20:58:39.346Z,1.55
2023-05-05T21:01:07.663Z,1.54
2023-05-05T21:03:37.525Z,1.54
2023-05-05T21:06:06.209Z,1.53
2023-05-05T21:08:34.491Z,1.50
2023-05-05T21:11:02.819Z,1.46
2023-05-05T21:13:32.066Z,1.45
2023-05-05T21:16:01.731Z,1.43
2023-05-05T21:18:30.151Z,1.42
2023-05-05T21:20:58.907Z,1.40
2023-05-05T21:23:27.188Z,1.39
2023-05-05T21:25:55.540Z,1.35
2023-05-05T21:28:23.936Z,1.33
2023-05-05T21:33:24.844Z,1.20
2023-05-05T21:35:53.063Z,1.12
2023-05-05T21:38:21.319Z,1.02
2023-05-05T21:40:49.784Z,0.91
2023-05-05T21:43:18.074Z,0.82
2023-05-05T21:45:46.310Z,0.77
2023-05-05T21:48:14.657Z,0.75
2023-05-05T21:50:44.223Z,0.74
2023-05-05T21:53:12.573Z,0.65
2023-05-05T21:55:41.028Z,0.52
2023-05-05T21:58:09.601Z,0.35
2023-05-05T22:00:37.877Z,0.22
2023-05-05T22:03:06.466Z,0.08
2023-05-05T22:05:34.836Z,-0.01
2023-05-05T22:08:04.835Z,-0.14
2023-05-05T22:10:33.191Z,-0.29
2023-05-05T22:13:01.514Z,-0.25
2023-05-05T22:15:35.718Z,-0.32
2023-05-05T22:18:11.411Z,-0.37
2023-05-05T22:20:40.603Z,-0.42
2023-05-05T22:23:10.349Z,-0.46
2023-05-05T22:25:38.556Z,-0.50
2023-05-05T22:28:06.753Z,-0.59
2023-05-05T22:30:35.098Z,-0.67
2023-05-05T22:33:03.487Z,-0.72
2023-05-05T22:35:32.129Z,-0.80
2023-05-05T22:38:00.461Z,-0.87
2023-05-05T22:40:30.042Z,-0.89
2023-05-05T22:42:58.225Z,-0.90
2023-05-05T22:45:26.813Z,-0.94
2023-05-05T22:47:55.586Z,-0.94
2023-05-05T22:50:24.038Z,-0.95
2023-05-05T22:52:52.272Z,-0.99
2023-05-05T22:55:20.845Z,-1.00
2023-05-05T22:57:50.501Z,-1.01
2023-05-05T23:00:19.362Z,-1.09
2023-05-05T23:02:47.814Z,-1.06
2023-05-05T23:05:16.097Z,-1.07
2023-05-05T23:07:44.255Z,-1.10
2023-05-05T23:10:12.670Z,-1.11
2023-05-05T23:12:40.898Z,-1.10
2023-05-05T23:15:12.036Z,-1.11
2023-05-05T23:17:40.853Z,-1.13
2023-05-05T23:20:12.078Z,-1.11
2023-05-05T23:22:40.333Z,-1.13
2023-05-05T23:25:10.216Z,-1.18
2023-05-05T23:27:39.957Z,-1.11
2023-05-05T23:30:11.078Z,-1.11
2023-05-05T23:32:39.424Z,-1.10
2023-05-05T23:35:09.139Z,-1.09
2023-05-05T23:37:37.659Z,-1.09
2023-05-05T23:40:07.715Z,-1.12
2023-05-05T23:42:36.249Z,-1.15
2023-05-05T23:45:04.858Z,-1.16
2023-05-05T23:47:34.829Z,-1.25
2023-05-05T23:50:03.483Z,-1.21
2023-05-05T23:52:32.467Z,-1.22
2023-05-05T23:55:00.830Z,-1.22
2023-05-05T23:57:29.083Z,-1.30
2023-05-05T23:59:57.319Z,-1.24
